createdAt,value
2022-11-07T00:00:34.462Z,12.88
2022-11-07T00:03:03.314Z,12.81
2022-11-07T00:05:31.819Z,13.51
2022-11-07T00:08:00.720Z,13.69
2022-11-07T00:10:30.381Z,12.63
2022-11-07T00:12:59.159Z,13.03
2022-11-07T00:15:31.264Z,12.54
2022-11-07T00:18:00.274Z,12.72
2022-11-07T00:20:29.565Z,13.02
2022-11-07T00:23:00.808Z,14.63
2022-11-07T00:25:33.500Z,14.42
2022-11-07T00:28:04.256Z,15.54
2022-11-07T00:30:34.293Z,14.85
2022-11-07T00:33:02.871Z,15.72
2022-11-07T00:35:31.192Z,13.95
2022-11-07T00:38:00.608Z,13.49
2022-11-07T00:40:29.244Z,13.36
2022-11-07T00:42:57.837Z,13.34
2022-11-07T00:45:27.045Z,13.25
2022-11-07T00:47:56.977Z,13.40
2022-11-07T00:50:26.363Z,13.12
2022-11-07T00:52:55.536Z,13.80
2022-11-07T00:55:24.098Z,14.62
2022-11-07T00:57:52.852Z,13.98
2022-11-07T01:00:21.676Z,14.03
2022-11-07T01:03:10.044Z,13.43
2022-11-07T01:05:39.837Z,12.57
2022-11-07T01:08:12.289Z,12.99
2022-11-07T01:10:43.825Z,13.44
2022-11-07T01:13:14.061Z,13.21
2022-11-07T01:15:43.355Z,12.61
2022-11-07T01:18:11.860Z,13.22
2022-11-07T01:20:42.248Z,13.52
2022-11-07T01:23:10.648Z,13.63
2022-11-07T01:25:40.176Z,13.53
2022-11-07T01:28:12.386Z,12.93
2022-11-07T01:30:42.383Z,13.68
2022-11-07T01:33:11.897Z,13.49
2022-11-07T01:35:42.617Z,13.81
2022-11-07T01:38:11.284Z,13.92
2022-11-07T01:40:57.051Z,14.05
2022-11-07T01:43:46.521Z,14.37
2022-11-07T01:46:15.193Z,14.39
2022-11-07T01:48:48.678Z,13.63
2022-11-07T01:51:20.911Z,13.64
2022-11-07T01:53:50.066Z,13.38
2022-11-07T01:56:20.383Z,14.13
2022-11-07T01:58:49.167Z,13.53
2022-11-07T02:01:18.731Z,13.39
2022-11-07T02:03:48.344Z,13.49
2022-11-07T02:06:25.683Z,13.68
2022-11-07T02:08:55.473Z,13.91
2022-11-07T02:11:25.106Z,13.74
2022-11-07T02:13:53.780Z,13.31
2022-11-07T02:16:23.991Z,13.64
2022-11-07T02:18:52.682Z,14.20
2022-11-07T02:21:38.334Z,13.80
2022-11-07T02:24:18.244Z,13.88
2022-11-07T02:26:47.350Z,13.70
2022-11-07T02:29:15.980Z,13.79
2022-11-07T02:31:44.380Z,13.99
2022-11-07T02:34:12.888Z,14.25
2022-11-07T02:36:41.472Z,13.72
2022-11-07T02:39:12.554Z,13.08
2022-11-07T02:41:40.935Z,13.09
2022-11-07T02:44:12.809Z,12.47
2022-11-07T02:46:41.730Z,13.00
2022-11-07T02:49:10.034Z,13.17
2022-11-07T02:51:38.561Z,12.99
2022-11-07T02:54:08.170Z,12.71
2022-11-07T02:56:38.026Z,13.02
2022-11-07T02:59:06.866Z,13.04
2022-11-07T03:01:36.668Z,13.46
2022-11-07T03:04:05.528Z,13.03
2022-11-07T03:06:34.932Z,13.21
2022-11-07T03:09:04.609Z,13.01
2022-11-07T03:11:33.753Z,12.99
2022-11-07T03:14:03.691Z,13.11
2022-11-07T03:16:32.466Z,13.06
2022-11-07T03:19:01.162Z,12.77
2022-11-07T03:21:30.336Z,12.70
2022-11-07T03:23:58.918Z,12.60
2022-11-07T03:26:28.508Z,12.02
2022-11-07T03:28:57.719Z,12.46
2022-11-07T03:31:27.507Z,12.21
2022-11-07T03:33:56.002Z,13.99
2022-11-07T03:36:24.416Z,12.37
2022-11-07T03:38:52.724Z,12.92
2022-11-07T03:41:21.937Z,12.22
2022-11-07T03:43:53.565Z,12.10
2022-11-07T03:46:23.919Z,11.49
2022-11-07T03:48:53.669Z,12.59
2022-11-07T03:51:22.075Z,12.19
2022-11-07T03:53:50.709Z,12.33
2022-11-07T03:56:19.427Z,11.97
2022-11-07T03:58:47.799Z,12.03
2022-11-07T04:01:16.136Z,11.62
2022-11-07T04:03:45.548Z,11.85
2022-11-07T04:06:15.372Z,12.22
2022-11-07T04:08:43.734Z,11.87
2022-11-07T04:11:32.725Z,11.70
2022-11-07T04:14:18.501Z,12.05
2022-11-07T04:17:04.510Z,12.29
2022-11-07T04:19:32.805Z,11.46
2022-11-07T04:22:02.518Z,11.26
2022-11-07T04:24:30.910Z,11.25
2022-11-07T04:27:16.473Z,11.63
2022-11-07T04:29:44.954Z,11.39
2022-11-07T04:32:13.241Z,11.42
2022-11-07T04:34:41.558Z,12.00
2022-11-07T04:37:11.251Z,11.36
2022-11-07T04:39:39.570Z,11.16
2022-11-07T04:42:08.120Z,11.82
2022-11-07T04:44:36.439Z,12.11
2022-11-07T04:47:04.806Z,11.58
2022-11-07T04:49:34.225Z,11.65
2022-11-07T04:52:02.627Z,11.38
2022-11-07T04:54:32.499Z,11.38
2022-11-07T04:57:00.910Z,11.48
2022-11-07T04:59:29.219Z,10.97
2022-11-07T05:01:57.766Z,11.29
2022-11-07T05:04:26.474Z,11.81
2022-11-07T05:06:55.001Z,11.88
2022-11-07T05:09:23.466Z,11.88
2022-11-07T05:11:54.038Z,11.86
2022-11-07T05:14:22.330Z,11.96
2022-11-07T05:16:52.115Z,11.56
2022-11-07T05:19:21.477Z,11.11
2022-11-07T05:22:10.412Z,10.85
2022-11-07T05:24:38.937Z,11.12
2022-11-07T05:27:08.822Z,11.14
2022-11-07T05:29:39.050Z,11.85
2022-11-07T05:32:07.705Z,11.70
2022-11-07T05:34:36.280Z,11.63
2022-11-07T05:37:04.846Z,11.97
2022-11-07T05:39:33.120Z,11.29
2022-11-07T05:42:02.435Z,11.08
2022-11-07T05:44:32.526Z,11.03
2022-11-07T05:47:01.429Z,11.03
2022-11-07T05:49:29.848Z,10.82
2022-11-07T05:51:58.948Z,11.09
2022-11-07T05:54:28.867Z,11.46
2022-11-07T05:57:00.472Z,11.36
2022-11-07T05:59:34.481Z,11.44
2022-11-07T06:02:02.946Z,11.28
2022-11-07T06:04:31.372Z,10.70
2022-11-07T06:06:59.707Z,11.01
2022-11-07T06:09:28.122Z,10.82
2022-11-07T06:11:56.469Z,10.99
2022-11-07T06:14:26.811Z,11.01
2022-11-07T06:16:56.473Z,11.13
2022-11-07T06:19:24.746Z,11.04
2022-11-07T06:21:52.977Z,10.69
2022-11-07T06:24:21.277Z,10.73
2022-11-07T06:26:49.868Z,11.25
2022-11-07T06:29:18.895Z,11.41
2022-11-07T06:31:47.529Z,11.35
2022-11-07T06:34:17.156Z,11.62
2022-11-07T06:36:50.691Z,11.74
2022-11-07T06:39:25.080Z,11.88
2022-11-07T06:41:53.344Z,12.14
2022-11-07T06:44:21.863Z,12.14
2022-11-07T06:46:50.280Z,12.05
2022-11-07T06:49:19.894Z,11.91
2022-11-07T06:51:48.277Z,11.87
2022-11-07T06:54:16.758Z,12.27
2022-11-07T06:56:45.059Z,11.83
2022-11-07T06:59:13.697Z,12.13
2022-11-07T07:01:42.173Z,11.75
2022-11-07T07:04:11.732Z,11.75
2022-11-07T07:06:41.665Z,12.27
2022-11-07T07:09:12.043Z,12.17
2022-11-07T07:11:42.649Z,12.22
2022-11-07T07:14:11.858Z,12.51
2022-11-07T07:16:40.454Z,12.05
2022-11-07T07:19:08.775Z,12.46
2022-11-07T07:21:37.101Z,12.44
2022-11-07T07:24:10.671Z,12.47
2022-11-07T07:26:38.924Z,12.78
2022-11-07T07:29:07.306Z,12.68
2022-11-07T07:31:35.611Z,12.83
2022-11-07T07:34:04.523Z,13.19
2022-11-07T07:36:33.083Z,13.25
2022-11-07T07:39:02.035Z,13.50
2022-11-07T07:41:33.967Z,13.84
2022-11-07T07:44:06.448Z,14.24
2022-11-07T07:46:36.793Z,13.93
2022-11-07T07:49:05.272Z,14.37
2022-11-07T07:51:33.654Z,14.91
2022-11-07T07:54:01.994Z,14.36
2022-11-07T07:56:31.754Z,15.05
2022-11-07T07:59:00.085Z,14.48
2022-11-07T08:01:34.672Z,14.66
2022-11-07T08:04:03.275Z,15.22
2022-11-07T08:06:32.414Z,15.65
2022-11-07T08:09:00.724Z,15.35
2022-11-07T08:11:29.093Z,15.31
2022-11-07T08:14:01.519Z,15.41
2022-11-07T08:16:30.709Z,16.12
2022-11-07T08:18:59.033Z,16.87
2022-11-07T08:21:27.273Z,17.26
2022-11-07T08:23:56.380Z,16.41
2022-11-07T08:26:26.256Z,16.59
2022-11-07T08:28:55.672Z,17.00
2022-11-07T08:31:25.423Z,16.64
2022-11-07T08:33:53.959Z,16.18
2022-11-07T08:36:22.258Z,16.30
2022-11-07T08:38:50.621Z,16.57
2022-11-07T08:41:22.125Z,16.69
2022-11-07T08:43:51.205Z,17.51
2022-11-07T08:46:19.819Z,17.36
2022-11-07T08:48:50.065Z,17.06
2022-11-07T08:51:18.363Z,16.20
2022-11-07T08:53:46.811Z,16.58
2022-11-07T08:56:15.175Z,16.90
2022-11-07T08:58:43.466Z,17.70
2022-11-07T09:01:12.345Z,18.11
2022-11-07T09:03:47.420Z,17.66
2022-11-07T09:06:17.902Z,17.85
2022-11-07T09:08:46.824Z,17.94
2022-11-07T09:11:18.779Z,18.91
2022-11-07T09:13:48.098Z,18.10
2022-11-07T09:16:18.239Z,18.54
2022-11-07T09:18:47.878Z,19.40
2022-11-07T09:21:22.176Z,18.22
2022-11-07T09:23:51.133Z,18.14
2022-11-07T09:26:19.586Z,17.95
2022-11-07T09:28:52.138Z,18.08
2022-11-07T09:31:22.939Z,18.95
2022-11-07T09:33:51.205Z,19.49
2022-11-07T09:36:22.184Z,19.52
2022-11-07T09:38:50.581Z,19.79
2022-11-07T09:41:34.929Z,20.55
2022-11-07T09:44:17.742Z,19.46
2022-11-07T09:47:00.758Z,19.94
2022-11-07T09:49:36.205Z,19.84
2022-11-07T09:52:19.762Z,19.76
2022-11-07T09:54:52.844Z,19.96
2022-11-07T09:57:21.695Z,19.68
2022-11-07T09:59:55.154Z,20.12
2022-11-07T10:02:27.714Z,20.62
2022-11-07T10:05:00.069Z,20.31
2022-11-07T10:07:43.609Z,20.62
2022-11-07T10:10:23.525Z,20.68
2022-11-07T10:13:18.447Z,19.36
2022-11-07T10:16:02.694Z,20.09
2022-11-07T10:18:48.258Z,20.23
2022-11-07T10:21:40.243Z,19.61
2022-11-07T10:24:29.280Z,20.31
2022-11-07T10:26:58.696Z,20.06
2022-11-07T10:29:45.086Z,20.15
2022-11-07T10:32:23.528Z,20.27
2022-11-07T10:35:00.440Z,19.97
2022-11-07T10:37:28.801Z,20.07
2022-11-07T10:39:58.483Z,19.83
2022-11-07T10:42:32.478Z,19.92
2022-11-07T10:45:01.191Z,19.74
2022-11-07T10:47:29.443Z,19.53
2022-11-07T10:50:00.621Z,20.01
2022-11-07T10:52:30.639Z,20.10
2022-11-07T10:55:16.900Z,19.68
2022-11-07T10:57:48.509Z,20.08
2022-11-07T11:00:26.204Z,20.81
2022-11-07T11:02:56.674Z,20.98
2022-11-07T11:05:29.519Z,20.94
2022-11-07T11:08:09.833Z,21.54
2022-11-07T11:10:41.141Z,21.54
2022-11-07T11:13:27.976Z,21.52
2022-11-07T11:16:04.253Z,21.19
2022-11-07T11:18:34.341Z,20.55
2022-11-07T11:21:06.705Z,21.32
2022-11-07T11:23:38.726Z,21.23
2022-11-07T11:26:15.372Z,21.90
2022-11-07T11:28:47.191Z,22.21
2022-11-07T11:31:25.438Z,21.60
2022-11-07T11:34:01.409Z,21.74
2022-11-07T11:36:36.444Z,21.89
2022-11-07T11:39:07.387Z,21.44
2022-11-07T11:41:51.890Z,21.90
2022-11-07T11:44:25.581Z,21.91
2022-11-07T11:47:04.399Z,22.61
2022-11-07T11:49:39.218Z,21.50
2022-11-07T11:52:15.667Z,22.42
2022-11-07T11:54:47.358Z,22.63
2022-11-07T11:57:23.123Z,22.61
2022-11-07T12:00:08.016Z,22.09
2022-11-07T12:02:54.922Z,21.78
2022-11-07T12:06:01.656Z,21.97
2022-11-07T12:08:58.425Z,22.07
2022-11-07T12:11:37.544Z,22.36
2022-11-07T12:14:25.217Z,22.01
2022-11-07T12:16:59.814Z,22.33
2022-11-07T12:19:35.325Z,22.82
2022-11-07T12:22:12.600Z,23.27
2022-11-07T12:24:49.137Z,23.07
2022-11-07T12:27:27.240Z,22.93
2022-11-07T12:30:09.888Z,22.21
2022-11-07T12:32:54.289Z,22.84
2022-11-07T12:35:39.451Z,22.65
2022-11-07T12:38:54.488Z,22.30
2022-11-07T12:41:35.443Z,21.85
2022-11-07T12:44:25.459Z,22.35
2022-11-07T12:46:57.795Z,21.78
2022-11-07T12:49:56.388Z,22.09
2022-11-07T12:52:45.119Z,22.56
2022-11-07T12:55:22.461Z,22.94
2022-11-07T12:57:54.345Z,23.21
2022-11-07T13:00:29.659Z,22.94
2022-11-07T13:03:35.293Z,22.17
2022-11-07T13:06:15.635Z,21.82
2022-11-07T13:08:55.077Z,21.43
2022-11-07T13:11:30.829Z,21.82
2022-11-07T13:14:25.334Z,21.92
2022-11-07T13:17:05.789Z,21.63
2022-11-07T13:19:37.779Z,22.13
2022-11-07T13:22:08.834Z,22.36
2022-11-07T13:24:51.202Z,21.35
2022-11-07T13:27:24.711Z,22.38
2022-11-07T13:29:53.644Z,21.72
2022-11-07T13:32:21.925Z,22.21
2022-11-07T13:34:59.130Z,22.38
2022-11-07T13:37:31.412Z,22.76
2022-11-07T13:40:06.186Z,22.48
2022-11-07T13:42:36.011Z,23.02
2022-11-07T13:45:27.350Z,22.00
2022-11-07T13:48:00.860Z,22.47
2022-11-07T13:50:43.606Z,23.27
2022-11-07T13:53:19.182Z,22.23
2022-11-07T13:55:53.970Z,22.73
2022-11-07T13:58:22.868Z,22.52
2022-11-07T14:00:51.308Z,22.52
2022-11-07T14:03:29.259Z,22.68
2022-11-07T14:06:09.987Z,22.77
2022-11-07T14:08:41.771Z,21.72
2022-11-07T14:11:19.011Z,21.90
2022-11-07T14:13:51.469Z,21.68
2022-11-07T14:16:23.191Z,22.17
2022-11-07T14:18:53.820Z,21.51
2022-11-07T14:21:27.206Z,21.83
2022-11-07T14:23:56.408Z,21.83
2022-11-07T14:26:30.726Z,21.76
2022-11-07T14:29:00.776Z,21.19
2022-11-07T14:31:32.153Z,21.93
2022-11-07T14:34:03.147Z,21.76
2022-11-07T14:36:32.997Z,21.85
2022-11-07T14:39:10.139Z,21.40
2022-11-07T14:41:44.302Z,21.45
2022-11-07T14:44:18.754Z,20.68
2022-11-07T14:46:48.264Z,21.19
2022-11-07T14:49:25.747Z,21.53
2022-11-07T14:51:57.265Z,21.62
2022-11-07T14:54:32.904Z,22.01
2022-11-07T14:57:02.347Z,21.87
2022-11-07T14:59:33.604Z,21.55
2022-11-07T15:02:21.713Z,21.27
2022-11-07T15:04:50.439Z,21.32
2022-11-07T15:07:28.858Z,21.06
2022-11-07T15:09:59.320Z,20.92
2022-11-07T15:12:30.656Z,20.85
2022-11-07T15:15:06.789Z,20.88
2022-11-07T15:17:44.747Z,20.43
2022-11-07T15:20:24.060Z,20.57
2022-11-07T15:22:53.837Z,20.40
2022-11-07T15:25:27.854Z,20.41
2022-11-07T15:27:57.085Z,20.52
2022-11-07T15:30:30.467Z,20.43
2022-11-07T15:32:59.455Z,20.12
2022-11-07T15:35:44.985Z,19.68
2022-11-07T15:38:21.161Z,19.65
2022-11-07T15:40:50.025Z,19.57
2022-11-07T15:43:19.038Z,19.63
2022-11-07T15:45:49.331Z,19.61
2022-11-07T15:48:22.636Z,19.31
2022-11-07T15:50:51.512Z,19.38
2022-11-07T15:53:24.425Z,19.29
2022-11-07T15:55:54.576Z,19.02
2022-11-07T15:58:25.302Z,19.05
2022-11-07T16:00:54.380Z,19.03
2022-11-07T16:03:25.441Z,18.53
2022-11-07T16:05:56.321Z,18.61
2022-11-07T16:08:27.329Z,18.64
2022-11-07T16:10:58.462Z,18.42
2022-11-07T16:13:28.149Z,17.91
2022-11-07T16:16:01.502Z,18.09
2022-11-07T16:18:36.306Z,18.00
2022-11-07T16:21:05.112Z,17.56
2022-11-07T16:23:35.305Z,17.57
2022-11-07T16:26:04.694Z,17.52
2022-11-07T16:28:35.324Z,17.37
2022-11-07T16:31:04.545Z,16.90
2022-11-07T16:33:32.972Z,16.16
2022-11-07T16:36:06.447Z,16.62
2022-11-07T16:38:36.573Z,16.91
2022-11-07T16:41:05.089Z,16.54
2022-11-07T16:43:35.522Z,16.75
2022-11-07T16:46:06.049Z,16.20
2022-11-07T16:48:39.222Z,15.96
2022-11-07T16:51:07.953Z,16.28
2022-11-07T16:53:37.911Z,15.85
2022-11-07T16:56:07.454Z,16.21
2022-11-07T16:58:36.622Z,15.78
2022-11-07T17:01:07.438Z,15.81
2022-11-07T17:03:36.058Z,15.86
2022-11-07T17:06:06.029Z,15.37
2022-11-07T17:08:38.877Z,15.55
2022-11-07T17:11:08.707Z,15.45
2022-11-07T17:13:37.451Z,15.89
2022-11-07T17:16:17.553Z,16.09
2022-11-07T17:18:47.104Z,16.22
2022-11-07T17:21:25.983Z,16.29
2022-11-07T17:23:58.000Z,16.01
2022-11-07T17:26:31.405Z,15.68
2022-11-07T17:29:00.753Z,16.05
2022-11-07T17:31:29.186Z,16.16
2022-11-07T17:33:59.721Z,16.10
2022-11-07T17:36:36.738Z,15.73
2022-11-07T17:39:11.896Z,15.82
2022-11-07T17:41:41.866Z,15.74
2022-11-07T17:44:12.552Z,16.02
2022-11-07T17:46:44.635Z,15.52
2022-11-07T17:49:19.112Z,15.70
2022-11-07T17:51:48.117Z,15.25
2022-11-07T17:54:24.136Z,15.49
2022-11-07T17:56:56.937Z,15.63
2022-11-07T17:59:25.476Z,15.33
2022-11-07T18:01:55.029Z,14.89
2022-11-07T18:04:24.484Z,15.02
2022-11-07T18:06:52.877Z,15.23
2022-11-07T18:09:22.793Z,14.74
2022-11-07T18:11:53.213Z,14.94
2022-11-07T18:14:21.998Z,14.91
2022-11-07T18:16:50.453Z,15.28
2022-11-07T18:19:19.187Z,15.52
2022-11-07T18:21:48.430Z,15.52
2022-11-07T18:24:16.947Z,15.18
2022-11-07T18:26:46.858Z,15.17
2022-11-07T18:29:16.341Z,15.29
2022-11-07T18:31:47.348Z,15.27
2022-11-07T18:34:16.089Z,15.50
2022-11-07T18:36:46.722Z,15.35
2022-11-07T18:39:21.673Z,15.09
2022-11-07T18:41:53.992Z,15.17
2022-11-07T18:44:22.770Z,15.02
2022-11-07T18:46:51.352Z,15.10
2022-11-07T18:49:19.861Z,15.18
2022-11-07T18:51:48.275Z,14.82
2022-11-07T18:54:16.733Z,14.74
2022-11-07T18:56:47.211Z,14.94
2022-11-07T18:59:16.929Z,14.48
2022-11-07T19:01:45.666Z,14.84
2022-11-07T19:04:14.260Z,14.78
2022-11-07T19:06:56.699Z,14.57
2022-11-07T19:09:28.621Z,14.61
2022-11-07T19:11:59.563Z,14.55
2022-11-07T19:14:30.707Z,14.65
2022-11-07T19:16:59.367Z,14.29
2022-11-07T19:19:28.139Z,14.29
2022-11-07T19:21:58.186Z,14.27
2022-11-07T19:24:26.707Z,13.95
2022-11-07T19:26:55.286Z,14.29
2022-11-07T19:29:24.180Z,14.19
2022-11-07T19:31:56.098Z,14.31
2022-11-07T19:34:26.801Z,14.32
2022-11-07T19:36:56.601Z,14.31
2022-11-07T19:39:25.036Z,13.62
2022-11-07T19:41:53.950Z,13.67
2022-11-07T19:44:22.621Z,14.07
2022-11-07T19:46:59.957Z,13.89
2022-11-07T19:49:28.750Z,13.60
2022-11-07T19:51:59.723Z,13.74
2022-11-07T19:54:28.275Z,13.61
2022-11-07T19:56:57.737Z,13.58
2022-11-07T19:59:27.283Z,13.69
2022-11-07T20:02:26.136Z,13.53
2022-11-07T20:04:47.708Z,13.59
2022-11-07T20:07:17.249Z,13.71
2022-11-07T20:09:47.314Z,13.69
2022-11-07T20:12:20.099Z,13.58
2022-11-07T20:14:48.791Z,13.14
2022-11-07T20:17:17.616Z,13.28
2022-11-07T20:19:51.864Z,13.47
2022-11-07T20:22:20.623Z,13.66
2022-11-07T20:24:49.330Z,13.74
2022-11-07T20:27:18.286Z,13.65
2022-11-07T20:29:47.034Z,13.68
2022-11-07T20:32:15.913Z,14.53
2022-11-07T20:34:48.771Z,14.09
2022-11-07T20:37:21.927Z,13.86
2022-11-07T20:39:51.731Z,13.69
2022-11-07T20:42:22.488Z,13.72
2022-11-07T20:44:52.724Z,14.00
2022-11-07T20:47:21.616Z,13.98
2022-11-07T20:49:49.906Z,13.91
2022-11-07T20:52:18.280Z,13.87
2022-11-07T20:54:48.315Z,13.69
2022-11-07T20:57:17.285Z,13.84
2022-11-07T20:59:46.141Z,13.53
2022-11-07T21:02:14.717Z,13.69
2022-11-07T21:05:03.286Z,13.76
2022-11-07T21:07:31.846Z,13.51
2022-11-07T21:10:01.749Z,13.62
2022-11-07T21:12:30.365Z,13.44
2022-11-07T21:14:58.986Z,13.04
2022-11-07T21:17:27.518Z,12.93
2022-11-07T21:20:11.301Z,12.93
2022-11-07T21:22:39.992Z,12.83
2022-11-07T21:25:10.964Z,12.59
2022-11-07T21:27:39.914Z,12.38
2022-11-07T21:30:09.745Z,12.62
2022-11-07T21:32:38.235Z,12.77
2022-11-07T21:35:11.188Z,12.88
2022-11-07T21:37:46.533Z,12.89
2022-11-07T21:40:27.845Z,12.99
2022-11-07T21:42:56.738Z,13.17
2022-11-07T21:45:25.508Z,13.00
2022-11-07T21:47:56.512Z,13.21
2022-11-07T21:50:43.721Z,13.05
2022-11-07T21:53:13.422Z,13.14
2022-11-07T21:55:44.555Z,12.91
2022-11-07T21:58:13.011Z,12.99
2022-11-07T22:00:41.873Z,13.09
2022-11-07T22:03:10.784Z,12.76
2022-11-07T22:05:46.546Z,12.84
2022-11-07T22:08:21.057Z,12.79
2022-11-07T22:10:54.141Z,12.69
2022-11-07T22:13:23.271Z,12.49
2022-11-07T22:15:54.169Z,12.87
2022-11-07T22:18:23.968Z,12.57
2022-11-07T22:20:53.037Z,12.38
2022-11-07T22:23:21.778Z,12.32
2022-11-07T22:25:52.048Z,12.34
2022-11-07T22:28:20.740Z,12.55
2022-11-07T22:30:50.561Z,12.67
2022-11-07T22:33:21.101Z,12.60
2022-11-07T22:35:50.967Z,12.22
2022-11-07T22:38:20.175Z,12.23
2022-11-07T22:40:49.324Z,11.72
2022-11-07T22:43:20.028Z,12.17
2022-11-07T22:45:51.332Z,12.32
2022-11-07T22:48:20.573Z,12.11
2022-11-07T22:50:50.313Z,12.04
2022-11-07T22:53:19.676Z,11.86
2022-11-07T22:55:49.094Z,12.18
2022-11-07T22:58:20.690Z,12.03
2022-11-07T23:00:50.711Z,12.23
2022-11-07T23:03:19.790Z,11.93
2022-11-07T23:05:48.857Z,11.83
2022-11-07T23:08:19.682Z,11.59
2022-11-07T23:11:34.957Z,11.82
2022-11-07T23:13:51.573Z,11.97
2022-11-07T23:16:22.108Z,11.76
2022-11-07T23:18:51.263Z,11.66
2022-11-07T23:21:22.472Z,11.80
2022-11-07T23:23:55.302Z,11.38
2022-11-07T23:26:25.421Z,11.67
2022-11-07T23:28:55.737Z,11.71
2022-11-07T23:31:24.578Z,11.66
2022-11-07T23:33:53.642Z,11.85
2022-11-07T23:36:22.329Z,11.86
2022-11-07T23:38:51.252Z,11.76
2022-11-07T23:41:20.017Z,11.31
2022-11-07T23:43:52.494Z,11.28
2022-11-07T23:46:40.618Z,11.24
2022-11-07T23:49:27.631Z,11.35
2022-11-07T23:51:57.493Z,10.91
2022-11-07T23:54:43.532Z,11.01
2022-11-07T23:57:12.429Z,11.31
2022-11-07T23:59:58.942Z,10.83
